sensor_id;sensor_type;location;lat;lon;timestamp;pressure;altitude;pressure_sealevel;temperature;humidity
20897;BME280;10608;42.600;23.398;2023-05-22T00:02:00;62864.19;;;-138.16;100.00
20897;BME280;10608;42.600;23.398;2023-05-22T00:04:27;62864.19;;;-138.16;100.00
20897;BME280;10608;42.600;23.398;2023-05-22T00:06:54;62864.19;;;-138.16;100.00
20897;BME280;10608;42.600;23.398;2023-05-22T00:09:19;62864.19;;;-138.16;100.00
20897;BME280;10608;42.600;23.398;2023-05-22T00:11:45;62864.19;;;-138.16;100.00
20897;BME280;10608;42.600;23.398;2023-05-22T00:14:11;62864.19;;;-138.16;100.00
20897;BME280;10608;42.600;23.398;2023-05-22T00:16:38;62864.19;;;-138.16;100.00
20897;BME280;10608;42.600;23.398;2023-05-22T00:19:03;62864.19;;;-138.16;100.00
20897;BME280;10608;42.600;23.398;2023-05-22T00:21:29;62864.19;;;-138.16;100.00
20897;BME280;10608;42.600;23.398;2023-05-22T00:24:00;62864.19;;;-138.16;100.00
20897;BME280;10608;42.600;23.398;2023-05-22T00:26:25;62864.19;;;-138.16;100.00
20897;BME280;10608;42.600;23.398;2023-05-22T00:28:51;62864.19;;;-138.16;100.00
20897;BME280;10608;42.600;23.398;2023-05-22T00:31:16;62864.19;;;-138.16;100.00
20897;BME280;10608;42.600;23.398;2023-05-22T00:33:42;62864.19;;;-138.16;100.00
20897;BME280;10608;42.600;23.398;2023-05-22T00:36:07;62864.19;;;-138.16;100.00
20897;BME280;10608;42.600;23.398;2023-05-22T00:38:34;62864.19;;;-138.16;100.00
20897;BME280;10608;42.600;23.398;2023-05-22T00:41:04;62864.19;;;-138.16;100.00
20897;BME280;10608;42.600;23.398;2023-05-22T00:43:30;62864.19;;;-138.16;100.00
20897;BME280;10608;42.600;23.398;2023-05-22T00:45:56;62864.19;;;-138.16;100.00
20897;BME280;10608;42.600;23.398;2023-05-22T00:48:22;62864.19;;;-138.16;100.00
20897;BME280;10608;42.600;23.398;2023-05-22T00:50:52;62864.19;;;-138.16;100.00
20897;BME280;10608;42.600;23.398;2023-05-22T00:53:19;62864.19;;;-138.16;100.00
20897;BME280;10608;42.600;23.398;2023-05-22T00:55:45;62864.19;;;-138.16;100.00
20897;BME280;10608;42.600;23.398;2023-05-22T00:58:16;62864.19;;;-138.16;100.00
20897;BME280;10608;42.600;23.398;2023-05-22T01:00:42;62864.19;;;-138.16;100.00
20897;BME280;10608;42.600;23.398;2023-05-22T01:03:08;62864.19;;;-138.16;100.00
20897;BME280;10608;42.600;23.398;2023-05-22T01:05:35;62864.19;;;-138.16;100.00
20897;BME280;10608;42.600;23.398;2023-05-22T01:08:02;62864.19;;;-138.16;100.00
20897;BME280;10608;42.600;23.398;2023-05-22T01:10:28;62864.19;;;-138.16;100.00
20897;BME280;10608;42.600;23.398;2023-05-22T01:13:03;62864.19;;;-138.16;100.00
20897;BME280;10608;42.600;23.398;2023-05-22T01:15:48;62864.19;;;-138.16;100.00
20897;BME280;10608;42.600;23.398;2023-05-22T01:18:26;62864.19;;;-138.16;100.00
20897;BME280;10608;42.600;23.398;2023-05-22T01:31:36;62864.19;;;-138.16;100.00
20897;BME280;10608;42.600;23.398;2023-05-22T01:34:03;62864.19;;;-138.16;100.00
20897;BME280;10608;42.600;23.398;2023-05-22T01:36:33;62864.19;;;-138.16;100.00
20897;BME280;10608;42.600;23.398;2023-05-22T01:39:01;62864.19;;;-138.16;100.00
20897;BME280;10608;42.600;23.398;2023-05-22T01:41:31;62864.19;;;-138.16;100.00
20897;BME280;10608;42.600;23.398;2023-05-22T01:43:58;62864.19;;;-138.16;100.00
20897;BME280;10608;42.600;23.398;2023-05-22T01:46:26;62864.19;;;-138.16;100.00
20897;BME280;10608;42.600;23.398;2023-05-22T01:48:51;62864.19;;;-138.16;100.00
20897;BME280;10608;42.600;23.398;2023-05-22T01:51:21;62864.19;;;-138.16;100.00
20897;BME280;10608;42.600;23.398;2023-05-22T01:54:06;62864.19;;;-138.16;100.00
20897;BME280;10608;42.600;23.398;2023-05-22T01:56:53;62864.19;;;-138.16;100.00
20897;BME280;10608;42.600;23.398;2023-05-22T02:02:06;62864.19;;;-138.16;100.00
20897;BME280;10608;42.600;23.398;2023-05-22T02:04:35;62864.19;;;-138.16;100.00
20897;BME280;10608;42.600;23.398;2023-05-22T02:07:03;62864.19;;;-138.16;100.00
20897;BME280;10608;42.600;23.398;2023-05-22T02:09:29;62864.19;;;-138.16;100.00
20897;BME280;10608;42.600;23.398;2023-05-22T02:11:58;62864.19;;;-138.16;100.00
20897;BME280;10608;42.600;23.398;2023-05-22T02:14:24;62864.19;;;-138.16;100.00
20897;BME280;10608;42.600;23.398;2023-05-22T02:16:51;62864.19;;;-138.16;100.00
20897;BME280;10608;42.600;23.398;2023-05-22T02:19:16;62864.19;;;-138.16;100.00
20897;BME280;10608;42.600;23.398;2023-05-22T02:21:42;62864.19;;;-138.16;100.00
20897;BME280;10608;42.600;23.398;2023-05-22T02:24:08;62864.19;;;-138.16;100.00
20897;BME280;10608;42.600;23.398;2023-05-22T02:26:33;62864.19;;;-138.16;100.00
20897;BME280;10608;42.600;23.398;2023-05-22T02:28:59;62864.19;;;-138.16;100.00
20897;BME280;10608;42.600;23.398;2023-05-22T02:31:25;62864.19;;;-138.16;100.00
20897;BME280;10608;42.600;23.398;2023-05-22T02:33:50;62864.19;;;-138.16;100.00
20897;BME280;10608;42.600;23.398;2023-05-22T02:36:16;62864.19;;;-138.16;100.00
20897;BME280;10608;42.600;23.398;2023-05-22T02:38:41;62864.19;;;-138.16;100.00
20897;BME280;10608;42.600;23.398;2023-05-22T02:41:07;62864.19;;;-138.16;100.00
20897;BME280;10608;42.600;23.398;2023-05-22T02:43:32;62864.19;;;-138.16;100.00
20897;BME280;10608;42.600;23.398;2023-05-22T02:45:57;62864.19;;;-138.16;100.00
20897;BME280;10608;42.600;23.398;2023-05-22T02:48:23;62864.19;;;-138.16;100.00
20897;BME280;10608;42.600;23.398;2023-05-22T02:50:48;62864.19;;;-138.16;100.00
20897;BME280;10608;42.600;23.398;2023-05-22T02:53:14;62864.19;;;-138.16;100.00
20897;BME280;10608;42.600;23.398;2023-05-22T02:55:41;62864.19;;;-138.16;100.00
20897;BME280;10608;42.600;23.398;2023-05-22T02:58:06;62864.19;;;-138.16;100.00
20897;BME280;10608;42.600;23.398;2023-05-22T03:00:44;62864.19;;;-138.16;100.00
20897;BME280;10608;42.600;23.398;2023-05-22T03:03:10;62864.19;;;-138.16;100.00
20897;BME280;10608;42.600;23.398;2023-05-22T03:05:36;62864.19;;;-138.16;100.00
20897;BME280;10608;42.600;23.398;2023-05-22T03:08:01;62864.19;;;-138.16;100.00
20897;BME280;10608;42.600;23.398;2023-05-22T03:10:26;62864.19;;;-138.16;100.00
20897;BME280;10608;42.600;23.398;2023-05-22T03:12:52;62864.19;;;-138.16;100.00
20897;BME280;10608;42.600;23.398;2023-05-22T03:15:17;62864.19;;;-138.16;100.00
20897;BME280;10608;42.600;23.398;2023-05-22T03:17:43;62864.19;;;-138.16;100.00
20897;BME280;10608;42.600;23.398;2023-05-22T03:20:09;62864.19;;;-138.16;100.00
20897;BME280;10608;42.600;23.398;2023-05-22T03:22:35;62864.19;;;-138.16;100.00
20897;BME280;10608;42.600;23.398;2023-05-22T03:25:01;62864.19;;;-138.16;100.00
20897;BME280;10608;42.600;23.398;2023-05-22T03:27:26;62864.19;;;-138.16;100.00
20897;BME280;10608;42.600;23.398;2023-05-22T03:29:52;62864.19;;;-138.16;100.00
20897;BME280;10608;42.600;23.398;2023-05-22T03:32:17;62864.19;;;-138.16;100.00
20897;BME280;10608;42.600;23.398;2023-05-22T03:34:42;62864.19;;;-138.16;100.00
20897;BME280;10608;42.600;23.398;2023-05-22T03:37:08;62864.19;;;-138.16;100.00
20897;BME280;10608;42.600;23.398;2023-05-22T03:39:34;62864.19;;;-138.16;100.00
20897;BME280;10608;42.600;23.398;2023-05-22T03:41:59;62864.19;;;-138.16;100.00
20897;BME280;10608;42.600;23.398;2023-05-22T03:44:25;62864.19;;;-138.16;100.00
20897;BME280;10608;42.600;23.398;2023-05-22T03:46:51;62864.19;;;-138.16;100.00
20897;BME280;10608;42.600;23.398;2023-05-22T03:49:16;62864.19;;;-138.16;100.00
20897;BME280;10608;42.600;23.398;2023-05-22T03:51:41;62864.19;;;-138.16;100.00
20897;BME280;10608;42.600;23.398;2023-05-22T03:54:07;62864.19;;;-138.16;100.00
20897;BME280;10608;42.600;23.398;2023-05-22T03:56:33;62864.19;;;-138.16;100.00
20897;BME280;10608;42.600;23.398;2023-05-22T03:58:59;62864.19;;;-138.16;100.00
20897;BME280;10608;42.600;23.398;2023-05-22T04:01:24;62864.19;;;-138.16;100.00
20897;BME280;10608;42.600;23.398;2023-05-22T04:03:50;62864.19;;;-138.16;100.00
20897;BME280;10608;42.600;23.398;2023-05-22T04:06:16;62864.19;;;-138.16;100.00
20897;BME280;10608;42.600;23.398;2023-05-22T04:08:41;62864.19;;;-138.16;100.00
20897;BME280;10608;42.600;23.398;2023-05-22T04:11:07;62864.19;;;-138.16;100.00
20897;BME280;10608;42.600;23.398;2023-05-22T04:13:32;62864.19;;;-138.16;100.00
20897;BME280;10608;42.600;23.398;2023-05-22T04:15:57;62864.19;;;-138.16;100.00
20897;BME280;10608;42.600;23.398;2023-05-22T04:18:23;62864.19;;;-138.16;100.00
20897;BME280;10608;42.600;23.398;2023-05-22T04:20:48;62864.19;;;-138.16;100.00
20897;BME280;10608;42.600;23.398;2023-05-22T04:23:16;80738.41;;;-138.15;38.33
20897;BME280;10608;42.600;23.398;2023-05-22T04:25:41;80615.25;;;-138.15;37.01
20897;BME280;10608;42.600;23.398;2023-05-22T04:28:07;80837.72;;;-138.15;38.63
20897;BME280;10608;42.600;23.398;2023-05-22T04:30:33;80621.19;;;-138.15;37.50
20897;BME280;10608;42.600;23.398;2023-05-22T04:32:59;80406.69;;;-138.15;36.24
20897;BME280;10608;42.600;23.398;2023-05-22T04:35:24;80051.19;;;-138.15;34.60
20897;BME280;10608;42.600;23.398;2023-05-22T04:37:50;79713.56;;;-138.15;32.92
20897;BME280;10608;42.600;23.398;2023-05-22T04:40:15;79681.78;;;-138.15;31.77
20897;BME280;10608;42.600;23.398;2023-05-22T04:42:41;79530.88;;;-138.15;31.01
20897;BME280;10608;42.600;23.398;2023-05-22T04:45:08;79648.03;;;-138.15;31.16
20897;BME280;10608;42.600;23.398;2023-05-22T04:47:34;79274.72;;;-138.15;30.94
20897;BME280;10608;42.600;23.398;2023-05-22T04:50:03;78911.38;;;-138.15;29.24
20897;BME280;10608;42.600;23.398;2023-05-22T04:52:28;78794.22;;;-138.15;29.07
20897;BME280;10608;42.600;23.398;2023-05-22T04:54:53;78357.47;;;-138.15;27.37
20897;BME280;10608;42.600;23.398;2023-05-22T04:57:20;78097.41;;;-138.15;26.46
20897;BME280;10608;42.600;23.398;2023-05-22T04:59:46;77708.38;;;-138.15;25.21
20897;BME280;10608;42.600;23.398;2023-05-22T05:02:12;77370.94;;;-138.15;24.33
20897;BME280;10608;42.600;23.398;2023-05-22T05:04:37;77255.84;;;-138.15;23.47
20897;BME280;10608;42.600;23.398;2023-05-22T05:07:03;77361.03;;;-138.15;24.11
20897;BME280;10608;42.600;23.398;2023-05-22T05:09:30;77682.56;;;-138.15;23.83
20897;BME280;10608;42.600;23.398;2023-05-22T05:11:55;77668.66;;;-138.15;23.58
20897;BME280;10608;42.600;23.398;2023-05-22T05:14:22;77543.63;;;-138.15;23.63
20897;BME280;10608;42.600;23.398;2023-05-22T05:16:47;77859.22;;;-138.15;23.33
20897;BME280;10608;42.600;23.398;2023-05-22T05:19:13;77680.56;;;-138.15;23.05
20897;BME280;10608;42.600;23.398;2023-05-22T05:21:39;77343.16;;;-138.15;21.79
20897;BME280;10608;42.600;23.398;2023-05-22T05:24:05;78018.00;;;-138.15;23.52
20897;BME280;10608;42.600;23.398;2023-05-22T05:26:31;78176.81;;;-138.15;24.76
20897;BME280;10608;42.600;23.398;2023-05-22T05:28:56;78000.16;;;-138.15;24.65
20897;BME280;10608;42.600;23.398;2023-05-22T05:31:21;78496.44;;;-138.15;25.08
20897;BME280;10608;42.600;23.398;2023-05-22T05:33:48;79546.75;;;-138.15;27.53
20897;BME280;10608;42.600;23.398;2023-05-22T05:36:14;79467.34;;;-138.15;27.79
20897;BME280;10608;42.600;23.398;2023-05-22T05:38:40;78780.31;;;-138.15;26.07
20897;BME280;10608;42.600;23.398;2023-05-22T05:41:05;78359.44;;;-138.15;25.11
20897;BME280;10608;42.600;23.398;2023-05-22T05:43:31;78287.97;;;-138.15;24.21
20897;BME280;10608;42.600;23.398;2023-05-22T05:45:56;78371.34;;;-138.15;24.84
20897;BME280;10608;42.600;23.398;2023-05-22T05:48:22;78585.75;;;-138.15;24.54
20897;BME280;10608;42.600;23.398;2023-05-22T05:50:47;78653.25;;;-138.15;24.34
20897;BME280;10608;42.600;23.398;2023-05-22T05:53:13;78847.84;;;-138.15;25.10
20897;BME280;10608;42.600;23.398;2023-05-22T05:55:39;78631.44;;;-138.15;24.29
20897;BME280;10608;42.600;23.398;2023-05-22T05:58:04;78839.88;;;-138.15;24.95
20897;BME280;10608;42.600;23.398;2023-05-22T06:00:30;78675.09;;;-138.15;24.48
20897;BME280;10608;42.600;23.398;2023-05-22T06:02:55;78480.53;;;-138.15;23.73
20897;BME280;10608;42.600;23.398;2023-05-22T06:05:21;79090.06;;;-138.15;25.05
20897;BME280;10608;42.600;23.398;2023-05-22T06:07:47;78770.41;;;-138.15;24.61
20897;BME280;10608;42.600;23.398;2023-05-22T06:10:13;78696.94;;;-138.15;25.05
20897;BME280;10608;42.600;23.398;2023-05-22T06:12:38;78512.31;;;-138.15;23.98
20897;BME280;10608;42.600;23.398;2023-05-22T06:15:04;78669.16;;;-138.15;24.57
20897;BME280;10608;42.600;23.398;2023-05-22T06:17:31;78375.31;;;-138.15;23.80
20897;BME280;10608;42.600;23.398;2023-05-22T06:19:57;78276.06;;;-138.15;23.96
20897;BME280;10608;42.600;23.398;2023-05-22T06:22:24;78059.69;;;-138.15;23.13
20897;BME280;10608;42.600;23.398;2023-05-22T06:24:52;78474.59;;;-138.15;24.01
20897;BME280;10608;42.600;23.398;2023-05-22T06:27:22;78077.56;;;-138.15;23.38
20897;BME280;10608;42.600;23.398;2023-05-22T06:29:48;78492.47;;;-138.15;23.96
20897;BME280;10608;42.600;23.398;2023-05-22T06:32:14;78051.75;;;-138.15;23.22
20897;BME280;10608;42.600;23.398;2023-05-22T06:34:40;78744.59;;;-138.15;25.01
20897;BME280;10608;42.600;23.398;2023-05-22T06:37:06;78601.66;;;-138.15;24.21
20897;BME280;10608;42.600;23.398;2023-05-22T06:39:31;78720.75;;;-138.15;24.42
20897;BME280;10608;42.600;23.398;2023-05-22T06:41:57;78270.13;;;-138.15;23.76
20897;BME280;10608;42.600;23.398;2023-05-22T06:44:22;78170.84;;;-138.15;23.78
20897;BME280;10608;42.600;23.398;2023-05-22T06:46:50;78184.75;;;-138.15;22.82
20897;BME280;10608;42.600;23.398;2023-05-22T06:49:16;78403.13;;;-138.15;22.99
20897;BME280;10608;42.600;23.398;2023-05-22T06:51:41;79197.28;;;-138.15;24.80
20897;BME280;10608;42.600;23.398;2023-05-22T06:54:07;79117.84;;;-138.15;25.01
20897;BME280;10608;42.600;23.398;2023-05-22T06:56:33;79137.72;;;-138.15;25.13
20897;BME280;10608;42.600;23.398;2023-05-22T06:58:59;79594.41;;;-138.15;26.65
20897;BME280;10608;42.600;23.398;2023-05-22T07:01:24;62864.19;;;-138.16;100.00
20897;BME280;10608;42.600;23.398;2023-05-22T07:03:50;62864.19;;;-138.16;100.00
20897;BME280;10608;42.600;23.398;2023-05-22T07:06:15;62864.19;;;-138.16;100.00
20897;BME280;10608;42.600;23.398;2023-05-22T07:08:40;62864.19;;;-138.16;100.00
20897;BME280;10608;42.600;23.398;2023-05-22T07:11:06;62864.19;;;-138.16;100.00
20897;BME280;10608;42.600;23.398;2023-05-22T07:13:32;62864.19;;;-138.16;100.00
20897;BME280;10608;42.600;23.398;2023-05-22T07:15:58;62864.19;;;-138.16;100.00
20897;BME280;10608;42.600;23.398;2023-05-22T07:18:23;62864.19;;;-138.16;100.00
20897;BME280;10608;42.600;23.398;2023-05-22T07:20:49;79594.41;;;-138.15;26.65
20897;BME280;10608;42.600;23.398;2023-05-22T07:23:14;78355.47;;;-138.15;23.70
20897;BME280;10608;42.600;23.398;2023-05-22T07:25:41;78857.75;;;-138.15;24.55
20897;BME280;10608;42.600;23.398;2023-05-22T07:28:06;79199.25;;;-138.15;24.91
20897;BME280;10608;42.600;23.398;2023-05-22T07:30:37;79314.44;;;-138.15;24.60
20897;BME280;10608;42.600;23.398;2023-05-22T07:33:03;78349.53;;;-138.15;23.18
20897;BME280;10608;42.600;23.398;2023-05-22T07:35:29;77613.09;;;-138.15;21.62
20897;BME280;10608;42.600;23.398;2023-05-22T07:37:55;77394.75;;;-138.15;20.78
20897;BME280;10608;42.600;23.398;2023-05-22T07:40:20;77335.22;;;-138.15;20.45
20897;BME280;10608;42.600;23.398;2023-05-22T07:42:46;77599.19;;;-138.15;21.74
20897;BME280;10608;42.600;23.398;2023-05-22T07:45:11;77422.56;;;-138.15;21.87
20897;BME280;10608;42.600;23.398;2023-05-22T07:47:37;76870.84;;;-138.15;20.24
20897;BME280;10608;42.600;23.398;2023-05-22T07:50:02;76827.19;;;-138.15;20.01
20897;BME280;10608;42.600;23.398;2023-05-22T07:52:29;77097.06;;;-138.15;20.84
20897;BME280;10608;42.600;23.398;2023-05-22T07:54:56;77462.25;;;-138.15;19.96
20897;BME280;10608;42.600;23.398;2023-05-22T07:57:21;77426.53;;;-138.15;20.34
20897;BME280;10608;42.600;23.398;2023-05-22T07:59:47;77549.56;;;-138.15;20.82
20897;BME280;10608;42.600;23.398;2023-05-22T08:02:13;77549.56;;;-138.15;21.17
20897;BME280;10608;42.600;23.398;2023-05-22T08:04:38;77976.31;;;-138.15;22.89
20897;BME280;10608;42.600;23.398;2023-05-22T08:07:05;78073.59;;;-138.15;23.56
20897;BME280;10608;42.600;23.398;2023-05-22T08:09:30;77867.16;;;-138.15;23.08
20897;BME280;10608;42.600;23.398;2023-05-22T08:11:56;77817.53;;;-138.15;21.72
20897;BME280;10608;42.600;23.398;2023-05-22T08:14:21;77289.56;;;-138.15;21.04
20897;BME280;10608;42.600;23.398;2023-05-22T08:16:47;77279.66;;;-138.15;20.30
20897;BME280;10608;42.600;23.398;2023-05-22T08:19:13;78780.31;;;-138.15;23.25
20897;BME280;10608;42.600;23.398;2023-05-22T08:21:38;78857.75;;;-138.15;24.54
20897;BME280;10608;42.600;23.398;2023-05-22T08:24:04;78875.63;;;-138.15;24.16
20897;BME280;10608;42.600;23.398;2023-05-22T08:26:30;79191.31;;;-138.15;25.11
20897;BME280;10608;42.600;23.398;2023-05-22T08:28:57;79308.47;;;-138.15;25.59
20897;BME280;10608;42.600;23.398;2023-05-22T08:31:22;78561.94;;;-138.15;23.43
20897;BME280;10608;42.600;23.398;2023-05-22T08:33:48;78339.59;;;-138.15;22.22
20897;BME280;10608;42.600;23.398;2023-05-22T08:36:13;78133.16;;;-138.15;22.53
20897;BME280;10608;42.600;23.398;2023-05-22T08:38:39;78176.81;;;-138.15;22.11
20897;BME280;10608;42.600;23.398;2023-05-22T08:41:05;78426.94;;;-138.15;23.10
20897;BME280;10608;42.600;23.398;2023-05-22T08:43:31;78919.31;;;-138.15;23.50
20897;BME280;10608;42.600;23.398;2023-05-22T08:46:02;79376.00;;;-138.15;24.64
20897;BME280;10608;42.600;23.398;2023-05-22T08:48:32;79189.34;;;-138.15;24.45
20897;BME280;10608;42.600;23.398;2023-05-22T08:51:03;79026.53;;;-138.15;25.16
20897;BME280;10608;42.600;23.398;2023-05-22T08:53:36;78988.81;;;-138.15;22.97
20897;BME280;10608;42.600;23.398;2023-05-22T08:56:06;78970.94;;;-138.15;22.27
20897;BME280;10608;42.600;23.398;2023-05-22T08:58:35;78359.44;;;-138.15;23.52
20897;BME280;10608;42.600;23.398;2023-05-22T09:01:01;77950.53;;;-138.15;20.77
20897;BME280;10608;42.600;23.398;2023-05-22T09:03:28;77581.34;;;-138.15;20.47
20897;BME280;10608;42.600;23.398;2023-05-22T09:05:57;77190.34;;;-138.15;20.44
20897;BME280;10608;42.600;23.398;2023-05-22T09:08:24;77561.47;;;-138.15;19.13
20897;BME280;10608;42.600;23.398;2023-05-22T09:10:49;78349.53;;;-138.15;21.23
20897;BME280;10608;42.600;23.398;2023-05-22T09:13:25;78897.47;;;-138.15;21.07
20897;BME280;10608;42.600;23.398;2023-05-22T09:15:52;79022.56;;;-138.15;22.13
20897;BME280;10608;42.600;23.398;2023-05-22T09:18:17;79338.25;;;-138.15;22.66
20897;BME280;10608;42.600;23.398;2023-05-22T09:20:43;79360.09;;;-138.15;23.37
20897;BME280;10608;42.600;23.398;2023-05-22T09:23:12;79538.81;;;-138.15;23.98
20897;BME280;10608;42.600;23.398;2023-05-22T09:25:44;79346.19;;;-138.15;23.52
20897;BME280;10608;42.600;23.398;2023-05-22T09:28:10;79685.75;;;-138.15;24.40
20897;BME280;10608;42.600;23.398;2023-05-22T09:30:36;79709.59;;;-138.15;25.28
20897;BME280;10608;42.600;23.398;2023-05-22T09:33:05;79804.91;;;-138.15;24.48
20897;BME280;10608;42.600;23.398;2023-05-22T09:35:35;79987.63;;;-138.15;25.48
20897;BME280;10608;42.600;23.398;2023-05-22T09:38:03;80019.41;;;-138.15;25.25
20897;BME280;10608;42.600;23.398;2023-05-22T09:40:28;80023.38;;;-138.15;26.13
20897;BME280;10608;42.600;23.398;2023-05-22T09:42:55;79979.69;;;-138.15;24.91
20897;BME280;10608;42.600;23.398;2023-05-22T09:45:21;80190.19;;;-138.15;25.86
20897;BME280;10608;42.600;23.398;2023-05-22T09:47:50;80434.50;;;-138.15;27.08
20897;BME280;10608;42.600;23.398;2023-05-22T09:50:16;80639.09;;;-138.15;28.06
20897;BME280;10608;42.600;23.398;2023-05-22T09:52:43;80595.38;;;-138.15;27.38
20897;BME280;10608;42.600;23.398;2023-05-22T09:55:12;80734.44;;;-138.15;27.48
20897;BME280;10608;42.600;23.398;2023-05-22T09:57:42;80575.53;;;-138.15;27.41
20897;BME280;10608;42.600;23.398;2023-05-22T10:00:11;80456.34;;;-138.15;27.20
20897;BME280;10608;42.600;23.398;2023-05-22T10:02:48;80273.63;;;-138.15;27.40
20897;BME280;10608;42.600;23.398;2023-05-22T10:05:15;80065.06;;;-138.15;26.42
20897;BME280;10608;42.600;23.398;2023-05-22T10:07:48;80118.69;;;-138.15;26.13
20897;BME280;10608;42.600;23.398;2023-05-22T10:10:16;79928.03;;;-138.15;26.05
20897;BME280;10608;42.600;23.398;2023-05-22T10:12:44;79796.97;;;-138.15;25.21
20897;BME280;10608;42.600;23.398;2023-05-22T10:15:12;79904.22;;;-138.15;25.16
20897;BME280;10608;42.600;23.398;2023-05-22T10:17:38;79820.81;;;-138.15;25.34
20897;BME280;10608;42.600;23.398;2023-05-22T10:20:07;79663.91;;;-138.15;25.49
20897;BME280;10608;42.600;23.398;2023-05-22T10:22:36;79554.69;;;-138.15;26.22
20897;BME280;10608;42.600;23.398;2023-05-22T10:25:03;79503.06;;;-138.15;25.60
20897;BME280;10608;42.600;23.398;2023-05-22T10:27:28;79526.91;;;-138.15;26.12
20897;BME280;10608;42.600;23.398;2023-05-22T10:32:42;79957.84;;;-138.15;25.96
20897;BME280;10608;42.600;23.398;2023-05-22T10:35:22;79945.91;;;-138.15;26.75
20897;BME280;10608;42.600;23.398;2023-05-22T10:37:53;80160.41;;;-138.15;29.14
20897;BME280;10608;42.600;23.398;2023-05-22T10:40:32;80476.22;;;-138.15;31.04
20897;BME280;10608;42.600;23.398;2023-05-22T10:42:59;80364.97;;;-138.15;31.31
20897;BME280;10608;42.600;23.398;2023-05-22T10:45:26;80247.78;;;-138.15;31.71
20897;BME280;10608;42.600;23.398;2023-05-22T10:48:05;80323.28;;;-138.15;32.40
20897;BME280;10608;42.600;23.398;2023-05-22T10:50:31;80388.81;;;-138.15;33.19
20897;BME280;10608;42.600;23.398;2023-05-22T10:53:20;80255.75;;;-138.15;33.96
20897;BME280;10608;42.600;23.398;2023-05-22T10:55:53;80116.72;;;-138.15;32.88
20897;BME280;10608;42.600;23.398;2023-05-22T10:58:29;80118.69;;;-138.15;31.97
20897;BME280;10608;42.600;23.398;2023-05-22T11:01:24;80182.25;;;-138.15;30.64
20897;BME280;10608;42.600;23.398;2023-05-22T11:03:57;80257.72;;;-138.15;31.16
20897;BME280;10608;42.600;23.398;2023-05-22T11:06:45;80464.28;;;-138.15;32.45
20897;BME280;10608;42.600;23.398;2023-05-22T11:09:33;80496.06;;;-138.15;31.14
20897;BME280;10608;42.600;23.398;2023-05-22T11:14:47;80706.63;;;-138.15;35.29
20897;BME280;10608;42.600;23.398;2023-05-22T11:17:16;81032.38;;;-138.15;36.58
20897;BME280;10608;42.600;23.398;2023-05-22T11:19:45;81171.44;;;-138.15;37.92
20897;BME280;10608;42.600;23.398;2023-05-22T11:22:12;81316.47;;;-138.15;37.64
20897;BME280;10608;42.600;23.398;2023-05-22T11:24:38;81346.28;;;-138.15;38.14
20897;BME280;10608;42.600;23.398;2023-05-22T11:27:05;81445.59;;;-138.15;35.42
20897;BME280;10608;42.600;23.398;2023-05-22T11:29:31;62864.19;;;-138.16;100.00
20897;BME280;10608;42.600;23.398;2023-05-22T11:31:58;62864.19;;;-138.16;100.00
20897;BME280;10608;42.600;23.398;2023-05-22T11:34:24;62864.19;;;-138.16;100.00
20897;BME280;10608;42.600;23.398;2023-05-22T11:36:51;62864.19;;;-138.16;100.00
20897;BME280;10608;42.600;23.398;2023-05-22T11:39:17;62864.19;;;-138.16;100.00
20897;BME280;10608;42.600;23.398;2023-05-22T11:41:42;62864.19;;;-138.16;100.00
20897;BME280;10608;42.600;23.398;2023-05-22T11:44:07;62864.19;;;-138.16;100.00
20897;BME280;10608;42.600;23.398;2023-05-22T11:46:33;62864.19;;;-138.16;100.00
20897;BME280;10608;42.600;23.398;2023-05-22T11:48:59;62864.19;;;-138.16;100.00
20897;BME280;10608;42.600;23.398;2023-05-22T11:51:26;62864.19;;;-138.16;100.00
20897;BME280;10608;42.600;23.398;2023-05-22T11:53:51;62864.19;;;-138.16;100.00
20897;BME280;10608;42.600;23.398;2023-05-22T11:56:19;62864.19;;;-138.16;100.00
20897;BME280;10608;42.600;23.398;2023-05-22T11:58:48;62864.19;;;-138.16;100.00
20897;BME280;10608;42.600;23.398;2023-05-22T12:01:14;62864.19;;;-138.16;100.00
20897;BME280;10608;42.600;23.398;2023-05-22T12:03:40;62864.19;;;-138.16;100.00
20897;BME280;10608;42.600;23.398;2023-05-22T12:06:06;62864.19;;;-138.16;100.00
20897;BME280;10608;42.600;23.398;2023-05-22T12:08:33;62864.19;;;-138.16;100.00
20897;BME280;10608;42.600;23.398;2023-05-22T12:10:58;62864.19;;;-138.16;100.00
20897;BME280;10608;42.600;23.398;2023-05-22T12:13:26;62864.19;;;-138.16;100.00
20897;BME280;10608;42.600;23.398;2023-05-22T12:16:01;62864.19;;;-138.16;100.00
20897;BME280;10608;42.600;23.398;2023-05-22T12:18:34;62864.19;;;-138.16;100.00
20897;BME280;10608;42.600;23.398;2023-05-22T12:21:00;62864.19;;;-138.16;100.00
20897;BME280;10608;42.600;23.398;2023-05-22T12:23:30;62864.19;;;-138.16;100.00
20897;BME280;10608;42.600;23.398;2023-05-22T12:26:00;62864.19;;;-138.16;100.00
20897;BME280;10608;42.600;23.398;2023-05-22T12:28:26;62864.19;;;-138.16;100.00
20897;BME280;10608;42.600;23.398;2023-05-22T12:30:53;62864.19;;;-138.16;100.00
20897;BME280;10608;42.600;23.398;2023-05-22T12:33:24;62864.19;;;-138.16;100.00
20897;BME280;10608;42.600;23.398;2023-05-22T12:35:49;62864.19;;;-138.16;100.00
20897;BME280;10608;42.600;23.398;2023-05-22T12:38:19;62864.19;;;-138.16;100.00
20897;BME280;10608;42.600;23.398;2023-05-22T12:40:45;62864.19;;;-138.16;100.00
20897;BME280;10608;42.600;23.398;2023-05-22T12:43:11;62864.19;;;-138.16;100.00
20897;BME280;10608;42.600;23.398;2023-05-22T12:45:37;62864.19;;;-138.16;100.00